In Rescue
 
Open Full Screen Window  High Contrast Mode
Wind Gusting 18 knots
12
October 25, 2021 3:39 PM EDT
Weather Information
Wind Direction
  010 °
Wind Speed
  12 kt (14 mph)
Wind Gust
  18 kt (21 mph)
Altimeter
29.87 in
Visibility
10 SM
Temperature
09° C
48° F
Dewpoint
05° C
41° F
Humidity
76%
1hr Rain Fall
00.00 in.
24hr Rain Fall
00.16 in.
Sky Condition
Overcast @ 2,200 ft
MVFR

METAR KMOP 251939Z AUTO 01012G18KT 10SM OVC022 09/05 A2987 RMK AO2 T00900052

FAA Disclaimer: The data displayed is for advisory purposes only and is not to be used for flight planning or operations.